Time;durP1;ratioP1;P1;durP2;ratioP2;P2;SDS_P1;SDS_P2;PMS_P1;PMS_P2;Temp;Humidity;BMP_temperature;BMP_pressure;BME280_temperature;BME280_humidity;BME280_pressure;Samples;Min_cycle;Max_cycle;Signal;HPM_P1;HPM_P2
2022/03/13 00:00:42;;;;;;;4.15;3.67;;;7.30;11.50;;;;;;5074234;28;20180;-51
2022/03/13 00:03:09;;;;;;;3.13;2.03;;;7.30;11.40;;;;;;5075560;28;20228;-51
2022/03/13 00:05:36;;;;;;;2.80;2.55;;;7.30;11.40;;;;;;5075437;28;20577;-51
2022/03/13 00:08:14;;;;;;;2.67;2.03;;;7.30;11.40;;;;;;5075490;28;20169;-51
2022/03/13 00:10:39;;;;;;;3.17;2.70;;;7.20;11.40;;;;;;5075430;28;20187;-51
2022/03/13 00:13:05;;;;;;;2.77;1.57;;;7.20;11.70;;;;;;5075149;28;20197;-52
2022/03/13 00:15:38;;;;;;;2.63;1.80;;;7.20;11.60;;;;;;5075275;28;20149;-51
2022/03/13 00:18:03;;;;;;;3.55;2.58;;;7.20;11.50;;;;;;5075205;28;20814;-51
2022/03/13 00:20:30;;;;;;;5.10;3.00;;;7.10;11.60;;;;;;5075170;28;20165;-51
2022/03/13 00:22:57;;;;;;;5.53;2.67;;;7.10;11.80;;;;;;5075030;28;20238;-51
2022/03/13 00:25:23;;;;;;;7.50;3.30;;;7.10;12.00;;;;;;5075015;28;20184;-51
2022/03/13 00:27:49;;;;;;;2.20;1.85;;;7.10;11.80;;;;;;5074894;28;20165;-51
2022/03/13 00:30:16;;;;;;;2.13;1.67;;;7.10;11.80;;;;;;5075110;28;20302;-51
2022/03/13 00:32:42;;;;;;;4.45;2.33;;;7.00;12.60;;;;;;5074906;28;20411;-51
2022/03/13 00:35:08;;;;;;;5.10;2.23;;;7.00;12.00;;;;;;5074888;28;20179;-50
2022/03/13 00:37:34;;;;;;;2.67;2.10;;;7.00;12.20;;;;;;5074666;28;20438;-51
2022/03/13 00:40:01;;;;;;;4.10;2.47;;;7.00;11.90;;;;;;5074999;28;20500;-52
2022/03/13 00:42:28;;;;;;;3.85;1.98;;;7.00;12.00;;;;;;5074804;28;20176;-51
2022/03/13 00:44:53;;;;;;;2.92;2.30;;;6.90;12.10;;;;;;5074551;28;20181;-51
2022/03/13 00:47:20;;;;;;;4.40;3.40;;;6.90;12.10;;;;;;5074684;28;20222;-51
2022/03/13 00:49:47;;;;;;;2.53;2.17;;;7.00;12.10;;;;;;5074738;28;20464;-51
2022/03/13 00:52:13;;;;;;;2.85;2.03;;;6.90;12.40;;;;;;5074217;28;20502;-51
2022/03/13 00:54:39;;;;;;;3.15;2.35;;;6.90;12.40;;;;;;5074479;28;20226;-51
2022/03/13 00:57:05;;;;;;;4.23;2.67;;;6.80;12.30;;;;;;5074383;28;20196;-51
2022/03/13 00:59:31;;;;;;;2.78;2.00;;;6.80;12.30;;;;;;5073085;28;20169;-51
2022/03/13 01:01:56;;;;;;;7.10;3.47;;;6.70;12.60;;;;;;5074291;28;20172;-51
2022/03/13 01:04:22;;;;;;;4.17;2.30;;;6.70;12.60;;;;;;5074289;28;20170;-51
2022/03/13 01:06:48;;;;;;;3.27;2.40;;;6.70;12.70;;;;;;5074200;28;20443;-51
2022/03/13 01:09:14;;;;;;;7.00;2.90;;;6.70;12.60;;;;;;5074289;28;20160;-51
2022/03/13 01:11:40;;;;;;;1.83;1.43;;;6.70;12.60;;;;;;5074137;28;20211;-51
2022/03/13 01:14:06;;;;;;;3.20;2.20;;;6.60;12.60;;;;;;5073862;28;20591;-51
2022/03/13 01:16:37;;;;;;;3.05;2.63;;;6.60;12.60;;;;;;5074182;28;20475;-51
2022/03/13 01:19:04;;;;;;;3.30;2.38;;;6.60;12.60;;;;;;5074087;28;20226;-51
2022/03/13 01:21:32;;;;;;;4.28;2.65;;;6.70;12.80;;;;;;5074022;28;20190;-51
2022/03/13 01:24:00;;;;;;;5.90;2.40;;;6.70;12.70;;;;;;5073913;28;20173;-51
2022/03/13 01:26:26;;;;;;;3.38;2.40;;;6.70;12.70;;;;;;5073923;28;20172;-51
2022/03/13 01:28:56;;;;;;;2.30;2.07;;;6.70;12.80;;;;;;5073821;28;20161;-51
2022/03/13 01:31:25;;;;;;;4.63;3.13;;;6.60;12.60;;;;;;5074095;28;20517;-51
2022/03/13 01:33:50;;;;;;;3.67;2.95;;;6.60;12.60;;;;;;5073748;28;20173;-51
2022/03/13 01:36:16;;;;;;;4.00;2.60;;;6.70;12.80;;;;;;5073782;28;20243;-51
2022/03/13 01:38:42;;;;;;;2.60;2.30;;;6.50;12.80;;;;;;5073689;28;20172;-51
2022/03/13 01:41:08;;;;;;;3.50;2.20;;;6.50;12.90;;;;;;5072428;28;20419;-52
2022/03/13 01:43:35;;;;;;;2.03;1.67;;;6.50;12.90;;;;;;5073676;28;20180;-51
2022/03/13 01:46:03;;;;;;;2.22;1.80;;;6.50;13.00;;;;;;5072690;28;20165;-51
2022/03/13 01:48:29;;;;;;;4.50;3.15;;;6.50;13.10;;;;;;5073608;28;20168;-51
2022/03/13 01:50:55;;;;;;;5.40;2.03;;;6.50;13.00;;;;;;5072276;28;20179;-51
2022/03/13 01:53:21;;;;;;;3.43;2.40;;;6.40;13.10;;;;;;5073596;28;20177;-52
2022/03/13 01:55:55;;;;;;;5.53;2.53;;;6.40;13.10;;;;;;5073425;28;20983;-51
2022/03/13 01:58:22;;;;;;;3.33;2.15;;;6.50;13.10;;;;;;5072172;28;20200;-51
2022/03/13 02:00:48;;;;;;;4.60;2.38;;;6.50;13.10;;;;;;5073441;28;20176;-51
2022/03/13 02:03:16;;;;;;;3.45;2.55;;;6.50;13.20;;;;;;5073553;28;20169;-52
2022/03/13 02:05:45;;;;;;;3.58;2.13;;;6.50;13.20;;;;;;5073333;28;20183;-51
2022/03/13 02:08:21;;;;;;;2.45;1.75;;;6.50;13.20;;;;;;5073406;28;20172;-51
2022/03/13 02:10:47;;;;;;;2.53;2.28;;;6.50;13.10;;;;;;5073396;28;20164;-51
2022/03/13 02:13:18;;;;;;;4.93;2.47;;;6.40;13.20;;;;;;5073258;28;20542;-52
2022/03/13 02:15:44;;;;;;;4.40;2.28;;;6.50;13.20;;;;;;5073393;28;20155;-51
2022/03/13 02:18:10;;;;;;;8.82;2.53;;;6.50;13.20;;;;;;5073297;28;20227;-52
2022/03/13 02:20:43;;;;;;;3.47;2.55;;;6.40;13.10;;;;;;5071996;28;20200;-51
2022/03/13 02:23:22;;;;;;;2.35;2.13;;;6.40;13.10;;;;;;5073585;28;20547;-51
2022/03/13 02:25:50;;;;;;;4.25;3.03;;;6.40;13.00;;;;;;5072691;28;20184;-51
2022/03/13 02:28:23;;;;;;;2.33;2.10;;;6.40;13.20;;;;;;5073244;28;20213;-51
2022/03/13 02:30:50;;;;;;;2.40;2.20;;;6.30;13.50;;;;;;5073205;28;20157;-51
2022/03/13 02:33:20;;;;;;;3.78;2.15;;;7.10;13.80;;;;;;5073168;28;20165;-51
2022/03/13 02:35:53;;;;;;;5.13;2.75;;;6.30;14.10;;;;;;5073054;28;20255;-51
2022/03/13 02:38:19;;;;;;;3.45;2.25;;;6.30;13.40;;;;;;5071828;28;20249;-51
2022/03/13 02:40:45;;;;;;;1.70;1.45;;;6.20;13.60;;;;;;5073086;28;20166;-51
2022/03/13 02:43:11;;;;;;;2.87;2.13;;;6.20;13.50;;;;;;5071835;28;20180;-52
2022/03/13 02:45:38;;;;;;;3.30;2.53;;;6.10;13.60;;;;;;5073040;28;20171;-51
2022/03/13 02:48:07;;;;;;;2.67;1.65;;;6.10;13.70;;;;;;5073225;28;20768;-51
2022/03/13 02:50:33;;;;;;;3.53;3.10;;;6.20;13.50;;;;;;5072958;28;20179;-51
2022/03/13 02:53:00;;;;;;;4.53;1.77;;;6.10;13.70;;;;;;5073044;28;20252;-51
2022/03/13 02:55:26;;;;;;;3.35;2.25;;;6.20;13.80;;;;;;5072997;28;20250;-51
2022/03/13 02:57:52;;;;;;;3.25;1.80;;;6.20;13.70;;;;;;5072981;28;20188;-51
2022/03/13 03:00:20;;;;;;;2.28;1.80;;;6.20;13.70;;;;;;5072896;28;20540;-51
2022/03/13 03:02:47;;;;;;;3.28;2.58;;;6.10;13.70;;;;;;5072875;28;20563;-51
2022/03/13 03:05:15;;;;;;;4.25;3.15;;;6.20;13.50;;;;;;5072950;28;20168;-51
2022/03/13 03:07:41;;;;;;;2.20;1.70;;;6.20;13.50;;;;;;5072856;28;20165;-51
2022/03/13 03:10:14;;;;;;;6.40;2.27;;;6.10;13.60;;;;;;5072994;28;20179;-51
2022/03/13 03:12:40;;;;;;;5.88;2.05;;;6.10;13.50;;;;;;5071820;28;20376;-51
2022/03/13 03:15:06;;;;;;;4.83;2.30;;;6.20;13.60;;;;;;5074323;28;20224;-51
2022/03/13 03:17:32;;;;;;;3.37;3.00;;;6.20;13.50;;;;;;5076253;28;20450;-50
2022/03/13 03:19:58;;;;;;;3.77;2.23;;;6.20;13.50;;;;;;5076420;28;20438;-51
2022/03/13 03:22:23;;;;;;;6.13;3.17;;;6.20;13.40;;;;;;5076342;28;20704;-51
2022/03/13 03:24:49;;;;;;;5.60;2.47;;;6.20;13.50;;;;;;5076194;28;20214;-51
2022/03/13 03:27:18;;;;;;;2.50;1.47;;;6.20;13.50;;;;;;5076177;28;20243;-51
2022/03/13 03:29:43;;;;;;;8.43;1.88;;;6.20;13.50;;;;;;5076140;28;20167;-51
2022/03/13 03:32:09;;;;;;;3.20;2.00;;;6.20;13.40;;;;;;5076283;28;20169;-51
2022/03/13 03:34:35;;;;;;;6.43;2.30;;;6.10;13.60;;;;;;5076322;28;20164;-51
2022/03/13 03:37:02;;;;;;;7.60;2.80;;;6.10;13.50;;;;;;5076005;28;20207;-51
2022/03/13 03:39:29;;;;;;;4.18;2.65;;;6.20;13.50;;;;;;5075987;28;20690;-51
2022/03/13 03:41:55;;;;;;;3.70;2.15;;;6.20;13.40;;;;;;5074637;28;20583;-51
2022/03/13 03:44:22;;;;;;;3.17;1.73;;;6.20;13.40;;;;;;5074621;28;20204;-51
2022/03/13 03:46:49;;;;;;;6.90;2.60;;;6.20;13.30;;;;;;5075832;28;20460;-51
2022/03/13 03:49:15;;;;;;;5.85;2.55;;;6.20;13.50;;;;;;5075856;28;20176;-50
2022/03/13 03:51:41;;;;;;;10.77;1.67;;;6.30;13.50;;;;;;5076049;28;20638;-51
2022/03/13 03:54:08;;;;;;;2.38;1.70;;;6.20;13.40;;;;;;5075632;28;20545;-51
2022/03/13 03:56:34;;;;;;;4.05;2.88;;;6.20;13.40;;;;;;5075613;28;20242;-51
2022/03/13 03:59:01;;;;;;;3.55;1.73;;;6.20;13.40;;;;;;5076119;28;20527;-51
2022/03/13 04:01:28;;;;;;;4.90;2.05;;;6.20;13.50;;;;;;5075577;28;20542;-51
2022/03/13 04:03:54;;;;;;;4.07;2.17;;;6.60;13.50;;;;;;5075741;28;20191;-51
2022/03/13 04:06:20;;;;;;;1.70;1.50;;;6.20;13.50;;;;;;5075546;28;20570;-51
2022/03/13 04:08:47;;;;;;;2.13;1.60;;;6.20;13.50;;;;;;5075645;28;20574;-51
2022/03/13 04:11:12;;;;;;;2.95;2.50;;;6.10;13.70;;;;;;5075428;28;20301;-51
2022/03/13 04:13:38;;;;;;;3.10;2.07;;;6.10;13.70;;;;;;5075097;28;20303;-51
2022/03/13 04:16:06;;;;;;;3.27;2.20;;;6.10;13.70;;;;;;5075382;28;20400;-51
2022/03/13 04:18:32;;;;;;;7.28;2.65;;;6.10;13.60;;;;;;5075084;28;20524;-51
2022/03/13 04:20:59;;;;;;;3.15;1.70;;;6.00;14.30;;;;;;5075433;28;20168;-51
2022/03/13 04:23:26;;;;;;;6.38;3.40;;;6.00;13.50;;;;;;5075384;28;20188;-51
2022/03/13 04:25:52;;;;;;;6.35;3.33;;;6.00;14.20;;;;;;5074202;28;20180;-51
2022/03/13 04:28:18;;;;;;;2.90;2.70;;;6.40;13.90;;;;;;5075043;28;20160;-51
2022/03/13 04:30:44;;;;;;;3.63;2.00;;;6.00;13.70;;;;;;5074937;28;20403;-51
2022/03/13 04:33:10;;;;;;;4.60;3.05;;;6.00;13.60;;;;;;5075153;28;20506;-51
2022/03/13 04:35:36;;;;;;;4.70;1.97;;;6.10;13.80;;;;;;5074901;28;20597;-51
2022/03/13 04:38:02;;;;;;;4.07;2.20;;;6.00;13.80;;;;;;5074716;28;20189;-51
2022/03/13 04:40:27;;;;;;;2.72;2.53;;;6.00;13.70;;;;;;5075080;28;20164;-51
2022/03/13 04:42:53;;;;;;;3.77;1.80;;;6.00;13.80;;;;;;5074795;28;20529;-51
2022/03/13 04:45:19;;;;;;;3.93;1.90;;;6.00;13.80;;;;;;5074740;28;20419;-51
2022/03/13 04:47:45;;;;;;;2.70;2.50;;;5.90;13.90;;;;;;5074570;28;20161;-51
2022/03/13 04:50:11;;;;;;;2.73;1.90;;;5.90;14.50;;;;;;5073331;28;20536;-51
2022/03/13 04:52:37;;;;;;;3.17;1.73;;;6.00;13.90;;;;;;5074586;28;20611;-51
2022/03/13 04:55:05;;;;;;;2.60;1.80;;;6.00;13.80;;;;;;5074472;28;20426;-51
2022/03/13 04:57:30;;;;;;;4.97;2.30;;;6.00;14.00;;;;;;5074428;28;20548;-51
2022/03/13 04:59:56;;;;;;;2.70;2.33;;;5.90;13.90;;;;;;5074653;28;20180;-51
2022/03/13 05:02:22;;;;;;;12.70;2.60;;;5.90;13.90;;;;;;5074355;28;20423;-51
2022/03/13 05:04:47;;;;;;;2.87;1.87;;;5.90;13.90;;;;;;5074311;28;20165;-51
2022/03/13 05:07:13;;;;;;;8.33;2.53;;;5.90;14.00;;;;;;5073688;28;20243;-51
2022/03/13 05:09:39;;;;;;;6.77;2.37;;;5.90;13.80;;;;;;5072841;28;20263;-51
2022/03/13 05:12:07;;;;;;;4.32;2.80;;;5.90;13.90;;;;;;5074273;28;20411;-51
2022/03/13 05:14:34;;;;;;;2.20;1.85;;;5.80;14.00;;;;;;5074063;28;20308;-50
2022/03/13 05:16:59;;;;;;;3.40;2.25;;;5.90;13.80;;;;;;5073976;28;20208;-51
2022/03/13 05:19:25;;;;;;;6.87;4.13;;;6.00;13.90;;;;;;5073982;28;20179;-52
2022/03/13 05:21:51;;;;;;;3.17;1.63;;;5.90;14.00;;;;;;5073911;28;20247;-51
2022/03/13 05:24:16;;;;;;;3.10;1.90;;;5.90;14.00;;;;;;5074105;28;20624;-51
2022/03/13 05:26:43;;;;;;;2.30;1.57;;;5.90;13.90;;;;;;5073931;28;20161;-50
2022/03/13 05:29:09;;;;;;;5.45;2.40;;;5.90;14.00;;;;;;5073803;28;20217;-51
2022/03/13 05:31:35;;;;;;;1.93;1.60;;;5.90;14.10;;;;;;5073870;28;20165;-51
2022/03/13 05:34:01;;;;;;;2.27;1.70;;;5.90;13.90;;;;;;5072480;28;20590;-51
2022/03/13 05:36:26;;;;;;;8.73;4.10;;;6.00;13.90;;;;;;5073666;28;20276;-51
2022/03/13 05:38:52;;;;;;;6.20;3.50;;;6.00;13.90;;;;;;5073450;28;20498;-51
2022/03/13 05:41:20;;;;;;;2.37;1.90;;;6.00;13.80;;;;;;5072427;28;20510;-51
2022/03/13 05:43:48;;;;;;;4.03;1.45;;;6.00;14.00;;;;;;5073639;28;20267;-51
2022/03/13 05:46:14;;;;;;;2.90;2.00;;;6.00;13.70;;;;;;5073613;28;20176;-51
2022/03/13 05:48:40;;;;;;;4.53;2.17;;;6.00;13.90;;;;;;5073715;28;20164;-51
2022/03/13 05:51:06;;;;;;;4.18;2.80;;;6.00;13.80;;;;;;5073795;28;20208;-51
2022/03/13 05:53:31;;;;;;;2.50;1.90;;;6.00;13.70;;;;;;5073688;28;20258;-51
2022/03/13 05:55:57;;;;;;;2.43;2.03;;;6.10;13.70;;;;;;5073534;28;20520;-51
2022/03/13 05:58:23;;;;;;;2.43;1.60;;;6.00;13.50;;;;;;5073520;28;20210;-51
2022/03/13 06:00:54;;;;;;;2.75;1.63;;;6.10;13.80;;;;;;5073517;28;20253;-51
2022/03/13 06:03:21;;;;;;;4.80;1.73;;;6.10;13.80;;;;;;5073444;28;20169;-51
2022/03/13 06:05:48;;;;;;;4.35;2.08;;;6.20;13.50;;;;;;5073755;28;20791;-51
2022/03/13 06:08:14;;;;;;;5.97;2.60;;;6.30;13.50;;;;;;5073308;28;20633;-51
2022/03/13 06:10:40;;;;;;;2.13;1.70;;;6.30;13.40;;;;;;5073367;28;20180;-51
2022/03/13 06:13:06;;;;;;;4.37;2.63;;;6.30;13.30;;;;;;5073127;28;20219;-51
2022/03/13 06:15:32;;;;;;;8.63;2.67;;;6.40;13.00;;;;;;5073327;28;20608;-51
2022/03/13 06:17:58;;;;;;;2.47;2.28;;;6.40;13.10;;;;;;5073245;28;20458;-51
2022/03/13 06:20:24;;;;;;;6.83;2.30;;;6.50;13.30;;;;;;5073262;28;20175;-51
2022/03/13 06:22:49;;;;;;;2.85;2.40;;;6.60;13.10;;;;;;5073264;28;20402;-51
2022/03/13 06:25:16;;;;;;;2.40;2.03;;;6.70;12.90;;;;;;5073477;28;20629;-51
2022/03/13 06:27:42;;;;;;;4.60;2.30;;;6.80;13.00;;;;;;5073267;28;20579;-51
2022/03/13 06:30:14;;;;;;;6.55;2.67;;;7.00;12.90;;;;;;5073437;28;20215;-51
2022/03/13 06:32:41;;;;;;;4.85;2.60;;;7.00;12.70;;;;;;5073390;28;20149;-51
2022/03/13 06:35:08;;;;;;;4.40;2.70;;;7.10;12.80;;;;;;5073088;28;20663;-51
2022/03/13 06:37:34;;;;;;;9.23;3.15;;;7.10;12.60;;;;;;5073156;28;20553;-51
2022/03/13 06:39:59;;;;;;;4.87;2.30;;;7.00;13.00;;;;;;5073000;28;20185;-51
2022/03/13 06:42:25;;;;;;;4.77;2.30;;;7.10;12.90;;;;;;5073036;28;20411;-51
2022/03/13 06:44:51;;;;;;;7.40;3.10;;;7.10;12.80;;;;;;5072998;28;20528;-51
2022/03/13 06:47:17;;;;;;;4.07;3.53;;;7.10;12.70;;;;;;5073014;28;20411;-51
2022/03/13 06:49:42;;;;;;;3.37;1.80;;;7.10;12.90;;;;;;5074147;28;20249;-51
2022/03/13 06:52:08;;;;;;;2.93;2.07;;;7.20;13.00;;;;;;5076808;28;20172;-51
2022/03/13 06:54:34;;;;;;;3.87;2.20;;;7.40;12.90;;;;;;5076919;28;20407;-51
2022/03/13 06:56:59;;;;;;;2.17;1.50;;;7.50;12.80;;;;;;5075401;28;20224;-51
2022/03/13 06:59:25;;;;;;;4.70;2.73;;;7.50;12.70;;;;;;5076768;28;20532;-51
2022/03/13 07:01:51;;;;;;;3.77;1.87;;;7.60;12.70;;;;;;5076647;28;20165;-51
2022/03/13 07:04:17;;;;;;;2.60;2.40;;;7.70;12.50;;;;;;5076649;28;20656;-51
2022/03/13 07:06:42;;;;;;;3.80;2.03;;;7.80;12.30;;;;;;5076505;28;20409;-51
2022/03/13 07:09:08;;;;;;;6.27;3.10;;;7.90;12.10;;;;;;5076472;28;20497;-51
2022/03/13 07:11:34;;;;;;;4.07;2.13;;;7.90;12.00;;;;;;5076559;28;20172;-51
2022/03/13 07:14:03;;;;;;;7.37;3.33;;;8.00;11.90;;;;;;5076129;28;20231;-51
2022/03/13 07:16:28;;;;;;;3.45;1.70;;;8.00;12.20;;;;;;5076543;28;20450;-51
2022/03/13 07:18:54;;;;;;;8.10;3.10;;;8.00;11.50;;;;;;5076383;28;20193;-51
2022/03/13 07:21:19;;;;;;;3.13;2.13;;;8.20;11.60;;;;;;5076413;28;20301;-51
2022/03/13 07:23:45;;;;;;;2.73;2.07;;;8.30;11.70;;;;;;5076273;28;20168;-51
2022/03/13 07:26:11;;;;;;;4.90;2.40;;;8.30;11.10;;;;;;5076197;28;20216;-51
2022/03/13 07:28:37;;;;;;;5.00;2.40;;;8.50;11.50;;;;;;5076424;28;20196;-51
2022/03/13 07:31:02;;;;;;;3.00;2.20;;;8.50;11.00;;;;;;5076125;28;20168;-51
2022/03/13 07:33:28;;;;;;;6.00;3.13;;;8.70;11.40;;;;;;5076486;28;20672;-51
2022/03/13 07:35:55;;;;;;;2.60;2.23;;;8.80;10.90;;;;;;5076074;28;20189;-51
2022/03/13 07:38:21;;;;;;;2.50;2.17;;;8.90;10.60;;;;;;5076144;28;20447;-51
2022/03/13 07:40:47;;;;;;;3.05;2.15;;;9.00;10.50;;;;;;5075932;28;20176;-51
2022/03/13 07:43:13;;;;;;;7.37;3.07;;;9.10;10.40;;;;;;5075850;28;20169;-51
2022/03/13 07:45:39;;;;;;;1.73;1.57;;;9.10;10.10;;;;;;5075892;28;20170;-51
2022/03/13 07:48:04;;;;;;;2.87;2.60;;;9.30;10.30;;;;;;5075686;28;20416;-51
2022/03/13 07:50:30;;;;;;;3.90;2.77;;;9.30;10.10;;;;;;5074669;28;20416;-51
2022/03/13 07:52:56;;;;;;;5.88;4.22;;;9.40;10.00;;;;;;5075690;28;20175;-51
2022/03/13 07:55:23;;;;;;;2.80;2.57;;;9.40;10.00;;;;;;5075604;28;20171;-51
2022/03/13 07:57:49;;;;;;;4.35;3.70;;;9.50;10.30;;;;;;5075631;28;20224;-51
2022/03/13 08:00:17;;;;;;;5.00;3.85;;;9.70;10.20;;;;;;5075322;28;20167;-51
2022/03/13 08:02:49;;;;;;;3.65;3.05;;;9.80;9.50;;;;;;5075575;28;20174;-51
2022/03/13 08:05:18;;;;;;;4.75;3.10;;;9.90;9.80;;;;;;5075526;28;20165;-51
2022/03/13 08:07:45;;;;;;;3.95;2.67;;;10.10;9.80;;;;;;5075555;28;20171;-52
2022/03/13 08:10:11;;;;;;;3.83;2.38;;;10.30;9.30;;;;;;5075346;28;20165;-51
2022/03/13 08:12:38;;;;;;;4.93;3.17;;;10.30;9.20;;;;;;5075345;28;20176;-51
2022/03/13 08:15:09;;;;;;;4.85;3.92;;;10.40;9.10;;;;;;5075076;28;20227;-51
2022/03/13 08:17:35;;;;;;;4.15;2.30;;;10.50;9.10;;;;;;5075149;28;20545;-52
2022/03/13 08:20:05;;;;;;;4.75;2.55;;;10.50;9.10;;;;;;5073884;28;20532;-51
2022/03/13 08:22:31;;;;;;;3.88;2.28;;;10.70;8.70;;;;;;5075446;28;20280;-51
2022/03/13 08:24:58;;;;;;;3.67;2.80;;;10.90;9.60;;;;;;5073690;28;20640;-51
2022/03/13 08:27:24;;;;;;;5.75;3.17;;;11.10;8.50;;;;;;5075168;28;20187;-51
2022/03/13 08:29:49;;;;;;;3.22;2.50;;;11.20;8.50;;;;;;5074976;28;20255;-51
2022/03/13 08:32:16;;;;;;;4.20;2.77;;;11.30;8.50;;;;;;5074864;28;20671;-51
2022/03/13 08:34:44;;;;;;;5.53;2.10;;;11.30;7.90;;;;;;5074934;28;20241;-52
2022/03/13 08:37:10;;;;;;;3.70;2.75;;;11.40;7.80;;;;;;5074981;28;20230;-51
2022/03/13 08:39:36;;;;;;;3.75;2.40;;;11.50;8.50;;;;;;5074747;28;20682;-51
2022/03/13 08:42:03;;;;;;;4.50;1.70;;;11.70;8.10;;;;;;5074700;28;20173;-51
2022/03/13 08:44:29;;;;;;;2.75;2.55;;;11.70;7.60;;;;;;5073534;28;20442;-51
2022/03/13 08:46:55;;;;;;;4.10;2.93;;;11.90;8.00;;;;;;5074629;28;20632;-52
2022/03/13 08:49:21;;;;;;;7.55;2.55;;;12.00;7.40;;;;;;5074681;28;20570;-52
2022/03/13 08:51:46;;;;;;;3.07;2.60;;;12.10;7.20;;;;;;5074517;28;20173;-51
2022/03/13 08:54:16;;;;;;;6.17;2.70;;;12.00;7.00;;;;;;5073206;28;20415;-51
2022/03/13 08:56:42;;;;;;;5.18;3.25;;;12.10;7.50;;;;;;5074242;28;20200;-51
2022/03/13 08:59:08;;;;;;;3.42;2.85;;;12.90;8.10;;;;;;5074415;28;20161;-51
2022/03/13 09:01:34;;;;;;;4.35;2.80;;;12.40;6.70;;;;;;5074348;28;20180;-51
2022/03/13 09:04:00;;;;;;;5.97;3.87;;;12.30;7.20;;;;;;5074289;28;20165;-51
2022/03/13 09:06:26;;;;;;;4.40;3.17;;;12.50;7.70;;;;;;5074261;28;20918;-52
2022/03/13 09:08:51;;;;;;;3.30;2.93;;;12.70;7.30;;;;;;5073114;28;20514;-51
2022/03/13 09:11:17;;;;;;;7.07;3.10;;;13.00;7.00;;;;;;5074350;28;20168;-51
2022/03/13 09:13:43;;;;;;;3.33;2.93;;;13.00;6.00;;;;;;5072199;28;20227;-51
2022/03/13 09:16:09;;;;;;;4.43;2.72;;;12.80;6.80;;;;;;5072726;28;20415;-51
2022/03/13 09:18:35;;;;;;;4.25;2.60;;;13.00;6.70;;;;;;5073956;28;20204;-51
2022/03/13 09:21:01;;;;;;;3.80;2.17;;;13.10;6.40;;;;;;5074153;28;20498;-52
2022/03/13 09:23:27;;;;;;;4.43;3.40;;;13.30;6.70;;;;;;5072637;28;20775;-52
2022/03/13 09:25:53;;;;;;;4.23;2.63;;;13.50;6.50;;;;;;5072529;28;20923;-51
2022/03/13 09:28:22;;;;;;;5.00;2.88;;;13.60;6.30;;;;;;5074042;28;20496;-52
2022/03/13 09:30:48;;;;;;;3.95;2.90;;;13.50;5.80;;;;;;5073787;28;20648;-52
2022/03/13 09:33:14;;;;;;;4.70;3.15;;;13.60;6.30;;;;;;5073709;28;20632;-51
2022/03/13 09:35:40;;;;;;;3.60;2.77;;;13.60;5.70;;;;;;5073783;28;20256;-52
2022/03/13 09:38:06;;;;;;;3.70;3.33;;;13.80;5.80;;;;;;5072314;28;20481;-51
2022/03/13 09:40:35;;;;;;;5.67;3.63;;;13.90;5.40;;;;;;5072380;28;20423;-52
2022/03/13 09:43:05;;;;;;;4.22;3.28;;;14.10;5.50;;;;;;5073606;28;20407;-52
2022/03/13 09:45:31;;;;;;;3.03;2.70;;;14.30;6.30;;;;;;5073734;28;20601;-51
2022/03/13 09:47:57;;;;;;;3.03;1.95;;;14.50;5.50;;;;;;5073725;28;20169;-51
2022/03/13 09:50:23;;;;;;;4.60;3.10;;;14.70;5.50;;;;;;5072239;28;20175;-52
2022/03/13 09:52:49;;;;;;;2.90;2.43;;;14.80;4.50;;;;;;5072242;28;20506;-51
2022/03/13 09:55:16;;;;;;;3.40;2.20;;;14.90;4.30;;;;;;5072132;28;20175;-51
2022/03/13 09:57:43;;;;;;;4.45;2.97;;;14.80;4.50;;;;;;5073430;28;20599;-51
2022/03/13 10:00:16;;;;;;;2.95;2.42;;;14.90;5.10;;;;;;5073288;28;20671;-51
2022/03/13 10:02:43;;;;;;;3.70;1.98;;;14.90;5.30;;;;;;5073530;28;20214;-51
2022/03/13 10:05:15;;;;;;;2.72;1.90;;;15.10;4.80;;;;;;5073324;28;20169;-52
2022/03/13 10:08:02;;;;;;;5.30;3.33;;;15.20;4.50;;;;;;5055315;28;20169;-51
2022/03/13 10:10:39;;;;;;;5.53;2.40;;;15.50;5.40;;;;;;5073388;28;20730;-51
2022/03/13 10:13:05;;;;;;;3.47;2.75;;;15.70;5.60;;;;;;5073120;28;20168;-52
2022/03/13 10:15:48;;;;;;;3.60;2.97;;;15.70;4.70;;;;;;5073528;28;20197;-51
2022/03/13 10:18:23;;;;;;;5.97;2.83;;;15.80;4.80;;;;;;5073210;28;20189;-51
2022/03/13 10:20:49;;;;;;;3.55;2.80;;;15.80;4.70;;;;;;5073212;28;20628;-51
2022/03/13 10:23:19;;;;;;;6.93;2.92;;;15.80;4.00;;;;;;5073129;28;20172;-51
2022/03/13 10:25:46;;;;;;;3.70;2.63;;;15.90;4.20;;;;;;5076206;28;20289;-51
2022/03/13 10:28:31;;;;;;;4.63;2.58;;;16.00;4.20;;;;;;5077279;28;20157;-51
2022/03/13 10:30:59;;;;;;;4.13;2.75;;;16.10;4.60;;;;;;5077357;28;20213;-51
2022/03/13 10:33:54;;;;;;;5.80;3.20;;;16.30;4.80;;;;;;5077220;28;20187;-51
2022/03/13 10:36:25;;;;;;;3.25;2.13;;;16.50;3.90;;;;;;5074897;28;20207;-51
2022/03/13 10:38:51;;;;;;;2.88;2.00;;;16.50;4.00;;;;;;5077352;28;20252;-51
2022/03/13 10:41:17;;;;;;;3.90;2.07;;;16.50;4.00;;;;;;5077000;28;20256;-50
2022/03/13 10:43:52;;;;;;;3.63;2.65;;;16.60;4.40;;;;;;5076980;28;20406;-51
2022/03/13 10:46:28;;;;;;;6.60;3.05;;;16.60;4.20;;;;;;5076172;28;20172;-51
2022/03/13 10:48:55;;;;;;;2.88;2.42;;;16.60;4.20;;;;;;5076938;28;20152;-51
2022/03/13 10:51:45;;;;;;;3.58;2.80;;;16.70;4.40;;;;;;5075592;28;20173;-51
2022/03/13 10:54:29;;;;;;;3.40;2.90;;;17.00;4.50;;;;;;5076809;28;20153;-51
2022/03/13 10:57:09;;;;;;;4.10;2.83;;;17.00;4.20;;;;;;5076724;28;20195;-50
2022/03/13 10:59:35;;;;;;;3.33;2.75;;;17.10;5.20;;;;;;5076772;28;20247;-50
2022/03/13 11:02:14;;;;;;;4.10;3.22;;;17.30;4.20;;;;;;5075298;28;20172;-50
2022/03/13 11:04:51;;;;;;;5.43;3.15;;;17.30;4.10;;;;;;5075283;28;20169;-50
2022/03/13 11:07:18;;;;;;;5.65;3.35;;;17.20;3.70;;;;;;5076615;28;20160;-51
2022/03/13 11:09:44;;;;;;;3.63;2.38;;;17.10;3.50;;;;;;5076528;28;20227;-51
2022/03/13 11:12:20;;;;;;;7.10;3.30;;;17.20;4.00;;;;;;5076422;28;20169;-50
2022/03/13 11:14:52;;;;;;;4.97;3.20;;;17.20;4.60;;;;;;5076239;28;20519;-51
2022/03/13 11:17:20;;;;;;;4.57;3.20;;;17.30;4.10;;;;;;5076464;28;20189;-51
2022/03/13 11:19:49;;;;;;;4.22;2.83;;;17.50;3.80;;;;;;5076224;28;20589;-51
2022/03/13 11:22:22;;;;;;;6.03;3.13;;;17.70;4.10;;;;;;5076016;28;20648;-51
2022/03/13 11:24:53;;;;;;;3.35;2.47;;;17.90;3.40;;;;;;5076287;28;20152;-51
2022/03/13 11:27:20;;;;;;;4.47;3.25;;;18.00;4.10;;;;;;5076317;28;20620;-51
2022/03/13 11:29:53;;;;;;;4.82;3.40;;;17.90;3.80;;;;;;5074734;28;20172;-51
2022/03/13 11:32:35;;;;;;;4.40;2.65;;;17.90;4.10;;;;;;5076295;28;20206;-51
2022/03/13 11:35:11;;;;;;;2.88;2.25;;;17.80;4.60;;;;;;5075377;28;20248;-51
2022/03/13 11:37:37;;;;;;;6.03;3.30;;;18.00;4.50;;;;;;5076127;28;20224;-51
2022/03/13 11:40:05;;;;;;;2.95;2.40;;;18.30;4.50;;;;;;5075860;28;20635;-51
2022/03/13 11:42:49;;;;;;;3.30;2.47;;;18.50;4.00;;;;;;5076126;28;20161;-51
2022/03/13 11:45:28;;;;;;;3.78;3.10;;;18.70;4.40;;;;;;5075782;28;20183;-50
2022/03/13 11:48:20;;;;;;;3.03;2.38;;;18.60;4.10;;;;;;5075771;28;20257;-50
2022/03/13 11:50:47;;;;;;;4.38;2.90;;;18.40;3.70;;;;;;5075783;28;20164;-50
2022/03/13 11:53:17;;;;;;;4.85;3.65;;;18.40;3.70;;;;;;5075543;28;20520;-50
2022/03/13 11:55:58;;;;;;;4.97;2.55;;;18.50;4.60;;;;;;5075651;28;20225;-50
2022/03/13 11:58:43;;;;;;;3.65;2.85;;;18.70;4.10;;;;;;5075409;28;20223;-50
2022/03/13 12:01:12;;;;;;;3.88;2.97;;;18.50;4.00;;;;;;5075287;28;20215;-50
2022/03/13 12:03:58;;;;;;;3.92;2.90;;;18.40;3.90;;;;;;5075440;28;20222;-50
2022/03/13 12:06:41;;;;;;;4.20;2.90;;;18.60;5.50;;;;;;5075321;28;20666;-50
2022/03/13 12:09:08;;;;;;;4.47;3.13;;;18.60;4.30;;;;;;5075611;28;20267;-50
2022/03/13 12:11:42;;;;;;;4.30;2.80;;;18.60;4.60;;;;;;5075333;28;20183;-50
2022/03/13 12:14:13;;;;;;;5.75;4.18;;;18.90;4.80;;;;;;5074921;28;20236;-51
2022/03/13 12:16:41;;;;;;;5.15;3.15;;;19.20;4.60;;;;;;5075219;28;20169;-51
2022/03/13 12:19:08;;;;;;;4.70;2.83;;;19.30;4.10;;;;;;5075195;28;20187;-50
2022/03/13 12:21:34;;;;;;;6.82;3.53;;;19.40;4.70;;;;;;5075066;28;20235;-50
2022/03/13 12:24:15;;;;;;;5.38;3.10;;;19.60;4.30;;;;;;5075095;28;20172;-51
2022/03/13 12:26:43;;;;;;;5.50;3.10;;;19.70;4.10;;;;;;5075105;28;20168;-51
2022/03/13 12:29:11;;;;;;;4.55;2.97;;;19.60;5.10;;;;;;5074942;28;20260;-50
2022/03/13 12:31:42;;;;;;;3.75;2.70;;;19.80;5.80;;;;;;5075039;28;20177;-51
2022/03/13 12:34:08;;;;;;;3.38;2.42;;;19.90;4.80;;;;;;5073606;28;20172;-51
2022/03/13 12:36:36;;;;;;;3.92;3.00;;;19.90;5.10;;;;;;5073387;28;20173;-51
2022/03/13 12:39:06;;;;;;;5.80;3.50;;;19.90;6.10;;;;;;5074619;28;20183;-51
2022/03/13 12:41:32;;;;;;;2.78;2.45;;;20.00;5.90;;;;;;5073177;28;20168;-51
2022/03/13 12:44:04;;;;;;;4.70;3.50;;;20.10;5.80;;;;;;5074643;28;20169;-50
2022/03/13 12:46:32;;;;;;;4.18;2.70;;;20.30;5.20;;;;;;5073020;28;20482;-51
2022/03/13 12:49:03;;;;;;;3.60;2.50;;;20.30;5.20;;;;;;5074030;28;20260;-51
2022/03/13 12:51:49;;;;;;;3.03;1.95;;;20.50;4.80;;;;;;5074646;28;20199;-51
2022/03/13 12:54:30;;;;;;;6.38;4.28;;;20.40;5.10;;;;;;5074454;28;20160;-51
2022/03/13 12:57:05;;;;;;;3.75;2.63;;;20.30;4.10;;;;;;5074400;28;20678;-50
2022/03/13 12:59:33;;;;;;;3.65;3.08;;;20.20;4.80;;;;;;5073127;28;20168;-51
2022/03/13 13:02:23;;;;;;;5.90;2.60;;;20.30;4.40;;;;;;5074306;28;20161;-51